createdAt,value
2022-09-15T00:01:14.246Z,99.90
2022-09-15T00:03:42.718Z,99.90
2022-09-15T00:06:12.005Z,99.90
2022-09-15T00:08:44.771Z,99.90
2022-09-15T00:11:18.230Z,99.90
2022-09-15T00:13:45.950Z,99.90
2022-09-15T00:30:23.703Z,99.90
2022-09-15T00:32:51.010Z,99.90
2022-09-15T00:35:18.257Z,99.90
2022-09-15T00:37:45.489Z,99.90
2022-09-15T00:40:12.966Z,99.90
2022-09-15T00:42:40.706Z,99.90
2022-09-15T00:45:16.025Z,99.90
2022-09-15T00:47:43.806Z,99.90
2022-09-15T00:50:18.556Z,99.90
2022-09-15T00:53:13.444Z,99.90
2022-09-15T00:55:48.055Z,99.90
2022-09-15T00:58:36.479Z,99.90
2022-09-15T01:01:05.369Z,99.90
2022-09-15T01:03:33.668Z,99.90
2022-09-15T01:06:24.018Z,99.90
2022-09-15T01:12:04.321Z,99.90
2022-09-15T01:14:32.919Z,99.90
2022-09-15T01:17:36.953Z,99.90
2022-09-15T01:20:14.364Z,99.90
2022-09-15T01:23:10.433Z,99.90
2022-09-15T01:25:48.029Z,99.90
2022-09-15T01:28:43.373Z,99.90
2022-09-15T01:31:58.985Z,99.90
2022-09-15T01:34:36.415Z,99.90
2022-09-15T01:37:12.860Z,99.90
2022-09-15T01:39:48.115Z,99.90
2022-09-15T01:42:18.928Z,99.90
2022-09-15T01:44:56.079Z,99.90
2022-09-15T01:47:29.243Z,99.90
2022-09-15T01:52:58.217Z,99.90
2022-09-15T01:56:09.454Z,99.90
2022-09-15T01:58:40.179Z,99.90
2022-09-15T02:01:30.262Z,99.90
2022-09-15T02:04:10.653Z,99.90
2022-09-15T02:06:47.279Z,99.90
2022-09-15T02:09:21.046Z,99.90
2022-09-15T02:12:08.738Z,99.90
2022-09-15T02:14:48.695Z,99.90
2022-09-15T02:17:22.020Z,99.90
2022-09-15T02:19:58.428Z,99.90
2022-09-15T02:22:31.093Z,99.90
2022-09-15T02:25:29.060Z,99.90
2022-09-15T02:28:03.330Z,99.90
2022-09-15T02:30:35.345Z,99.90
2022-09-15T02:33:07.207Z,99.90
2022-09-15T02:35:36.557Z,99.90
2022-09-15T02:38:07.619Z,99.90
2022-09-15T02:40:43.606Z,99.90
2022-09-15T02:43:14.560Z,99.90
2022-09-15T02:45:44.697Z,99.90
2022-09-15T02:48:13.557Z,99.90
2022-09-15T02:50:42.014Z,99.90
2022-09-15T02:53:11.304Z,99.90
2022-09-15T02:55:40.063Z,99.90
2022-09-15T02:58:08.688Z,99.90
2022-09-15T03:00:38.648Z,99.90
2022-09-15T03:03:07.123Z,99.90
2022-09-15T03:05:35.568Z,99.90
2022-09-15T03:08:03.818Z,99.90
2022-09-15T03:10:33.564Z,99.90
2022-09-15T03:13:01.590Z,99.90
2022-09-15T03:15:30.270Z,99.90
2022-09-15T03:17:58.451Z,99.90
2022-09-15T03:20:30.632Z,99.90
2022-09-15T03:22:59.034Z,99.90
2022-09-15T03:25:27.467Z,99.90
2022-09-15T03:27:56.996Z,99.90
2022-09-15T03:30:26.415Z,99.90
2022-09-15T03:32:54.350Z,99.90
2022-09-15T03:35:22.564Z,99.90
2022-09-15T03:37:51.849Z,99.90
2022-09-15T03:40:20.295Z,99.90
2022-09-15T03:42:48.791Z,99.90
2022-09-15T03:45:16.958Z,99.90
2022-09-15T03:47:45.036Z,99.90
2022-09-15T03:50:13.061Z,99.90
2022-09-15T03:52:41.400Z,99.90
2022-09-15T03:55:09.594Z,99.90
2022-09-15T03:57:37.969Z,99.90
2022-09-15T04:00:08.367Z,99.90
2022-09-15T04:02:36.494Z,99.90
2022-09-15T04:05:04.796Z,99.90
2022-09-15T04:07:33.290Z,99.90
2022-09-15T04:10:01.467Z,99.90
2022-09-15T04:12:32.796Z,99.90
2022-09-15T04:18:16.418Z,99.90
2022-09-15T04:28:47.729Z,99.90
2022-09-15T04:31:20.945Z,99.90
2022-09-15T04:33:57.412Z,99.90
2022-09-15T04:39:53.626Z,99.90
2022-09-15T04:42:37.752Z,99.90
2022-09-15T04:45:17.869Z,99.90
2022-09-15T04:48:12.346Z,99.90
2022-09-15T04:50:40.830Z,99.90
2022-09-15T04:53:39.432Z,99.30
2022-09-15T04:56:13.103Z,99.00
2022-09-15T05:01:57.061Z,99.20
2022-09-15T05:04:36.445Z,99.30
2022-09-15T05:07:06.889Z,99.60
2022-09-15T05:09:41.205Z,99.60
2022-09-15T05:15:16.066Z,99.90
2022-09-15T05:17:47.807Z,99.90
2022-09-15T05:20:18.614Z,99.90
2022-09-15T05:22:48.963Z,99.90
2022-09-15T06:09:38.155Z,97.60
2022-09-15T06:12:06.215Z,96.30
2022-09-15T06:14:35.145Z,96.00
2022-09-15T06:17:03.292Z,96.00
2022-09-15T06:19:40.823Z,96.00
2022-09-15T06:22:31.770Z,96.60
2022-09-15T06:25:01.185Z,96.60
2022-09-15T06:27:29.694Z,95.80
2022-09-15T06:42:38.937Z,95.30
2022-09-15T06:45:08.498Z,94.70
2022-09-15T07:07:12.076Z,95.70
2022-09-15T07:49:02.693Z,94.10
2022-09-15T07:51:30.227Z,95.30
2022-09-15T07:53:57.767Z,94.10
2022-09-15T07:56:25.081Z,94.50
2022-09-15T07:58:52.738Z,95.30
2022-09-15T08:01:22.324Z,95.10
2022-09-15T08:03:52.870Z,94.70
2022-09-15T08:06:31.622Z,94.90
2022-09-15T08:37:26.842Z,93.60
2022-09-15T08:39:56.109Z,92.90
2022-09-15T08:42:27.007Z,91.70
2022-09-15T08:45:02.591Z,91.70
2022-09-15T09:00:16.697Z,93.20
2022-09-15T09:02:58.098Z,92.00
2022-09-15T09:05:41.663Z,92.60
2022-09-15T09:08:44.459Z,91.30
2022-09-15T09:11:23.972Z,90.60
2022-09-15T09:14:04.357Z,90.30
2022-09-15T09:16:43.767Z,89.30
2022-09-15T09:19:23.931Z,88.60
2022-09-15T09:22:01.536Z,89.10
2022-09-15T09:24:44.275Z,86.20
2022-09-15T09:27:14.421Z,85.40
2022-09-15T09:29:52.035Z,81.20
2022-09-15T09:32:32.153Z,83.40
2022-09-15T09:35:13.364Z,80.40
2022-09-15T09:37:40.796Z,78.30
2022-09-15T09:40:13.595Z,75.90
2022-09-15T09:42:43.496Z,73.40
2022-09-15T09:45:16.343Z,74.50
2022-09-15T09:47:44.054Z,73.50
2022-09-15T09:50:38.839Z,69.90
2022-09-15T09:53:32.655Z,74.90
2022-09-15T09:56:12.540Z,73.40
2022-09-15T09:58:39.961Z,71.00
2022-09-15T10:01:13.663Z,69.90
2022-09-15T10:03:43.501Z,74.20
2022-09-15T10:06:14.070Z,69.90
2022-09-15T10:09:00.303Z,72.00
2022-09-15T10:11:44.732Z,73.40
2022-09-15T10:14:32.830Z,72.70
2022-09-15T10:17:00.540Z,70.60
2022-09-15T10:19:52.840Z,68.60
2022-09-15T10:22:37.564Z,68.70
2022-09-15T10:25:44.182Z,67.40
2022-09-15T10:28:25.108Z,69.20
2022-09-15T10:31:25.495Z,67.90
2022-09-15T10:33:59.661Z,70.60
2022-09-15T10:36:36.728Z,66.90
2022-09-15T10:39:33.318Z,66.50
2022-09-15T10:42:29.407Z,67.90
2022-09-15T10:45:31.169Z,67.20
2022-09-15T10:48:37.758Z,68.20
2022-09-15T10:51:30.669Z,68.70
2022-09-15T10:54:23.544Z,66.70
2022-09-15T10:57:07.961Z,67.10
2022-09-15T11:00:12.152Z,65.70
2022-09-15T11:03:02.912Z,65.00
2022-09-15T11:05:59.114Z,63.40
2022-09-15T11:08:40.262Z,64.80
2022-09-15T11:11:39.867Z,64.40
2022-09-15T11:14:22.797Z,65.70
2022-09-15T11:17:08.965Z,62.80
2022-09-15T11:19:59.979Z,63.60
2022-09-15T11:22:35.678Z,63.80
2022-09-15T11:25:19.499Z,62.20
2022-09-15T11:28:01.464Z,61.40
2022-09-15T11:30:41.653Z,61.80
2022-09-15T11:33:26.306Z,60.80
2022-09-15T11:36:01.009Z,61.90
2022-09-15T11:38:36.144Z,61.10
2022-09-15T11:42:36.443Z,59.80
2022-09-15T11:45:29.619Z,61.60
2022-09-15T11:48:43.634Z,59.30
2022-09-15T11:54:43.605Z,57.80
2022-09-15T12:00:15.733Z,58.70
2022-09-15T12:03:10.479Z,58.50
2022-09-15T12:06:09.544Z,58.20
2022-09-15T12:08:45.190Z,59.90
2022-09-15T12:11:23.056Z,57.80
2022-09-15T12:13:52.080Z,58.50
2022-09-15T12:16:21.223Z,58.10
2022-09-15T12:18:56.601Z,57.50
2022-09-15T12:22:01.829Z,57.20
2022-09-15T12:24:53.552Z,58.10
2022-09-15T12:27:21.478Z,56.70
2022-09-15T12:30:00.455Z,56.30
2022-09-15T12:32:33.185Z,56.80
2022-09-15T12:35:26.798Z,57.20
2022-09-15T12:37:56.229Z,57.10
2022-09-15T12:40:37.434Z,58.50
2022-09-15T12:43:11.245Z,59.00
2022-09-15T12:45:42.789Z,58.50
2022-09-15T12:48:25.617Z,59.30
2022-09-15T12:50:56.151Z,60.40
2022-09-15T12:53:27.536Z,59.50
2022-09-15T12:56:00.560Z,60.30
2022-09-15T12:58:40.548Z,60.00
2022-09-15T13:01:28.386Z,59.70
2022-09-15T13:03:57.781Z,60.80
2022-09-15T13:06:27.073Z,60.40
2022-09-15T13:08:55.803Z,61.50
2022-09-15T13:11:38.100Z,62.40
2022-09-15T13:14:08.305Z,61.70
2022-09-15T13:16:43.634Z,61.10
2022-09-15T13:19:26.831Z,59.10
2022-09-15T13:22:11.281Z,59.40
2022-09-15T13:25:14.585Z,58.20
2022-09-15T13:27:53.409Z,58.10
2022-09-15T13:30:21.532Z,57.10
2022-09-15T13:33:12.767Z,58.00
2022-09-15T13:35:52.206Z,57.80
2022-09-15T13:39:05.545Z,57.90
2022-09-15T13:41:51.390Z,59.10
2022-09-15T13:44:48.421Z,58.50
2022-09-15T13:47:30.393Z,58.60
2022-09-15T13:50:04.774Z,57.40
2022-09-15T13:52:32.429Z,58.50
2022-09-15T13:55:21.568Z,59.80
2022-09-15T14:00:51.748Z,58.30
2022-09-15T14:03:25.693Z,59.50
2022-09-15T14:05:55.440Z,59.10
2022-09-15T14:08:32.550Z,58.50
2022-09-15T14:11:10.806Z,58.20
2022-09-15T14:13:43.223Z,58.70
2022-09-15T14:16:28.084Z,57.40
2022-09-15T14:18:58.460Z,57.10
2022-09-15T14:21:34.621Z,56.30
2022-09-15T14:24:17.250Z,57.40
2022-09-15T14:26:44.583Z,56.30
2022-09-15T14:29:24.603Z,56.70
2022-09-15T14:31:53.283Z,57.50
2022-09-15T14:34:23.526Z,56.10
2022-09-15T14:37:05.527Z,56.30
2022-09-15T14:39:37.490Z,56.30
2022-09-15T14:42:22.946Z,56.50
2022-09-15T14:47:45.643Z,54.40
2022-09-15T14:50:22.497Z,56.30
2022-09-15T14:53:07.271Z,56.10
2022-09-15T14:56:03.160Z,56.60
2022-09-15T14:58:51.201Z,55.90
2022-09-15T15:01:58.247Z,55.80
2022-09-15T15:04:43.126Z,54.70
2022-09-15T15:07:27.530Z,55.50
2022-09-15T15:09:59.187Z,56.00
2022-09-15T15:12:55.531Z,56.90
2022-09-15T15:15:25.713Z,56.80
2022-09-15T15:17:57.295Z,57.10
2022-09-15T15:20:33.090Z,57.40
2022-09-15T15:23:13.662Z,57.10
2022-09-15T15:25:42.398Z,56.90
2022-09-15T15:28:31.198Z,57.10
2022-09-15T15:31:20.714Z,57.80
2022-09-15T15:34:00.148Z,58.50
2022-09-15T15:36:28.773Z,55.40
2022-09-15T15:38:59.208Z,54.50
2022-09-15T15:41:40.697Z,55.00
2022-09-15T15:44:26.495Z,55.40
2022-09-15T15:47:02.330Z,55.80
2022-09-15T15:49:32.758Z,54.70
2022-09-15T15:52:01.624Z,56.30
2022-09-15T15:54:29.422Z,56.00
2022-09-15T15:57:20.343Z,54.40
2022-09-15T15:59:47.626Z,55.90
2022-09-15T16:02:15.012Z,55.70
2022-09-15T16:04:42.314Z,55.60
2022-09-15T16:07:17.668Z,55.00
2022-09-15T16:09:47.210Z,56.00
2022-09-15T16:12:15.617Z,55.80
2022-09-15T16:14:42.967Z,56.00
2022-09-15T16:17:10.757Z,56.30
2022-09-15T16:19:38.071Z,56.80
2022-09-15T16:22:05.582Z,56.40
2022-09-15T16:24:51.139Z,57.40
2022-09-15T16:27:19.829Z,55.90
2022-09-15T16:29:53.177Z,56.20
2022-09-15T16:32:24.824Z,55.50
2022-09-15T16:34:56.267Z,55.70
2022-09-15T16:48:28.097Z,58.60
2022-09-15T16:51:28.739Z,57.20
2022-09-15T16:53:57.810Z,57.70
2022-09-15T16:56:36.229Z,58.30
2022-09-15T17:00:24.357Z,58.30
2022-09-15T17:03:50.370Z,57.90
2022-09-15T17:06:59.371Z,58.70
2022-09-15T17:10:00.392Z,59.70
2022-09-15T17:12:27.983Z,59.40
2022-09-15T17:15:27.125Z,58.60
2022-09-15T17:22:28.029Z,59.30
2022-09-15T17:24:55.313Z,58.90
2022-09-15T17:27:22.667Z,60.10
2022-09-15T17:29:49.904Z,60.90
2022-09-15T17:32:17.221Z,60.70
2022-09-15T17:34:44.641Z,60.50
2022-09-15T17:37:12.041Z,60.80
2022-09-15T17:39:39.385Z,60.60
2022-09-15T17:42:08.501Z,59.50
2022-09-15T17:44:37.730Z,59.80
2022-09-15T17:47:05.394Z,60.40
2022-09-15T17:49:32.619Z,60.40
2022-09-15T17:51:59.946Z,61.20
2022-09-15T17:54:27.526Z,60.70
2022-09-15T17:56:55.005Z,60.80
2022-09-15T17:59:22.321Z,59.90
2022-09-15T18:01:49.756Z,60.20
2022-09-15T18:04:17.059Z,61.10
2022-09-15T18:06:45.649Z,60.90
2022-09-15T18:09:14.673Z,61.30
2022-09-15T18:11:41.968Z,61.60
2022-09-15T18:14:10.445Z,62.50
2022-09-15T18:16:37.983Z,62.20
2022-09-15T18:19:05.290Z,62.30
2022-09-15T18:21:32.642Z,62.20
2022-09-15T18:24:01.049Z,63.00
2022-09-15T18:26:28.286Z,62.40
2022-09-15T18:28:56.889Z,62.40
2022-09-15T18:31:24.380Z,62.50
2022-09-15T18:33:51.664Z,62.30
2022-09-15T18:36:19.021Z,63.20
2022-09-15T18:38:46.403Z,64.10
2022-09-15T18:41:13.689Z,64.50
2022-09-15T18:43:41.235Z,65.00
2022-09-15T18:46:08.551Z,65.00
2022-09-15T18:48:35.828Z,64.50
2022-09-15T18:51:08.423Z,64.40
2022-09-15T18:53:36.785Z,65.20
2022-09-15T18:56:12.188Z,65.10
2022-09-15T18:58:39.589Z,64.80
2022-09-15T19:01:07.253Z,64.50
2022-09-15T19:03:35.049Z,63.80
2022-09-15T19:06:04.787Z,64.00
2022-09-15T19:08:33.178Z,63.60
2022-09-15T19:11:00.980Z,63.40
2022-09-15T19:13:31.922Z,63.80
2022-09-15T19:16:09.633Z,64.20
2022-09-15T19:18:39.272Z,65.00
2022-09-15T19:21:13.765Z,64.90
2022-09-15T19:24:14.615Z,64.40
2022-09-15T19:27:37.046Z,64.40
2022-09-15T19:30:10.291Z,65.10
2022-09-15T19:32:41.318Z,65.40
2022-09-15T19:51:02.800Z,68.40
2022-09-15T19:53:40.597Z,67.00
2022-09-15T19:56:17.121Z,68.60
2022-09-15T19:58:49.968Z,67.90
2022-09-15T20:01:20.777Z,68.00
2022-09-15T20:03:50.681Z,67.20
2022-09-15T20:06:31.663Z,67.70
2022-09-15T20:09:03.172Z,67.50
2022-09-15T20:11:35.894Z,66.90
2022-09-15T20:14:06.689Z,66.30
2022-09-15T20:16:36.962Z,65.90
2022-09-15T20:19:08.674Z,63.50
2022-09-15T20:21:55.586Z,62.70
2022-09-15T20:24:28.929Z,63.50
2022-09-15T20:26:59.797Z,62.60
2022-09-15T20:29:31.022Z,62.90
2022-09-15T20:32:03.858Z,63.20
2022-09-15T20:34:36.534Z,62.20
2022-09-15T20:37:11.341Z,63.30
2022-09-15T20:39:55.645Z,64.10
2022-09-15T21:01:39.449Z,65.10
2022-09-15T21:04:12.520Z,66.00
2022-09-15T21:06:41.082Z,65.20
2022-09-15T21:09:10.018Z,65.00
2022-09-15T21:11:41.462Z,65.00
2022-09-15T21:14:16.245Z,65.80
2022-09-15T21:16:45.994Z,65.20
2022-09-15T21:19:17.822Z,66.50
2022-09-15T21:21:47.184Z,65.80
2022-09-15T21:24:14.923Z,66.40
2022-09-15T21:27:01.566Z,67.00
2022-09-15T21:29:29.823Z,67.00
2022-09-15T21:31:58.155Z,66.80
2022-09-15T21:34:27.856Z,66.40
2022-09-15T21:36:55.479Z,66.00
2022-09-15T21:39:22.947Z,67.60
2022-09-15T21:41:50.852Z,67.20
2022-09-15T21:44:18.267Z,67.00
2022-09-15T21:46:46.924Z,66.90
2022-09-15T21:49:14.804Z,67.60
2022-09-15T21:51:42.325Z,67.20
2022-09-15T21:54:10.201Z,66.90
2022-09-15T21:56:38.366Z,66.80
2022-09-15T21:59:09.120Z,65.90
2022-09-15T22:01:37.115Z,67.90
2022-09-15T22:04:07.577Z,67.50
2022-09-15T22:06:37.669Z,68.00
2022-09-15T22:09:16.409Z,67.90
2022-09-15T22:11:46.239Z,67.40
2022-09-15T22:14:15.081Z,66.90
2022-09-15T22:16:43.353Z,68.20
2022-09-15T22:19:12.322Z,67.00
2022-09-15T22:21:42.214Z,67.20
2022-09-15T22:24:13.076Z,68.70
2022-09-15T22:26:43.508Z,67.90
2022-09-15T22:29:12.398Z,67.50
2022-09-15T22:31:42.400Z,67.10
2022-09-15T22:34:11.200Z,67.40
2022-09-15T22:36:45.433Z,67.60
2022-09-15T22:39:14.678Z,67.50
2022-09-15T22:41:44.623Z,67.50
2022-09-15T22:44:20.987Z,67.20
2022-09-15T22:46:51.498Z,68.40
2022-09-15T22:49:20.774Z,67.80
2022-09-15T22:51:49.711Z,68.00
2022-09-15T22:54:23.385Z,68.00
2022-09-15T22:56:52.547Z,68.80
2022-09-15T22:59:23.029Z,68.40
2022-09-15T23:01:52.081Z,69.20
2022-09-15T23:04:20.338Z,68.70
2022-09-15T23:06:48.975Z,69.60
2022-09-15T23:09:17.683Z,69.60
2022-09-15T23:11:45.039Z,69.30
2022-09-15T23:14:18.763Z,68.90
2022-09-15T23:16:46.095Z,69.10
2022-09-15T23:19:14.226Z,69.60
2022-09-15T23:21:41.902Z,69.00
2022-09-15T23:24:12.164Z,69.80
2022-09-15T23:26:39.467Z,69.80
2022-09-15T23:29:07.988Z,70.20
2022-09-15T23:31:35.947Z,70.50
2022-09-15T23:34:03.314Z,70.20
2022-09-15T23:36:30.892Z,70.30
2022-09-15T23:38:58.368Z,71.10
2022-09-15T23:41:25.722Z,71.20
2022-09-15T23:43:53.236Z,70.50
2022-09-15T23:46:20.562Z,70.80
2022-09-15T23:48:47.849Z,70.60
2022-09-15T23:51:15.129Z,70.60
2022-09-15T23:53:42.464Z,70.40
2022-09-15T23:56:09.814Z,70.90
2022-09-15T23:58:37.524Z,70.10
